createdAt,value
2019-03-03T00:00:41.178Z,0
2019-03-03T00:01:41.746Z,0
2019-03-03T00:02:42.313Z,0
2019-03-03T00:03:42.943Z,0
2019-03-03T00:04:43.473Z,0
2019-03-03T00:05:44.044Z,0
2019-03-03T00:06:44.619Z,0
2019-03-03T00:07:45.186Z,0
2019-03-03T00:08:45.757Z,0
2019-03-03T00:09:46.335Z,0
2019-03-03T00:10:46.907Z,0
2019-03-03T00:11:47.480Z,0
2019-03-03T00:12:48.047Z,0
2019-03-03T00:13:48.618Z,0
2019-03-03T00:14:49.183Z,0
2019-03-03T00:15:49.752Z,0
2019-03-03T00:16:50.329Z,0
2019-03-03T00:17:50.895Z,0
2019-03-03T00:18:51.462Z,0
2019-03-03T00:19:52.039Z,0
2019-03-03T00:20:52.619Z,0
2019-03-03T00:21:53.198Z,0
2019-03-03T00:22:53.766Z,0
2019-03-03T00:23:54.335Z,0
2019-03-03T00:24:54.902Z,0
2019-03-03T00:25:55.469Z,0
2019-03-03T00:26:56.049Z,0
2019-03-03T00:27:56.617Z,0
2019-03-03T00:28:57.198Z,0
2019-03-03T00:29:57.765Z,0
2019-03-03T00:30:58.345Z,0
2019-03-03T00:31:58.914Z,0
2019-03-03T00:32:59.480Z,0
2019-03-03T00:34:00.050Z,0
2019-03-03T00:35:00.617Z,0
2019-03-03T00:36:01.186Z,0
2019-03-03T00:37:01.753Z,0
2019-03-03T00:38:02.325Z,0
2019-03-03T00:39:02.889Z,0
2019-03-03T00:40:03.458Z,0
2019-03-03T00:41:04.022Z,0
2019-03-03T00:42:04.591Z,0
2019-03-03T00:43:05.158Z,0
2019-03-03T00:44:05.727Z,0
2019-03-03T00:45:06.293Z,0
2019-03-03T00:46:06.859Z,0
2019-03-03T00:47:07.426Z,0
2019-03-03T00:48:07.995Z,0
2019-03-03T00:49:08.561Z,0
2019-03-03T00:50:09.130Z,0
2019-03-03T00:51:09.696Z,0
2019-03-03T00:52:10.263Z,0
2019-03-03T00:53:10.835Z,0
2019-03-03T00:54:11.399Z,0
2019-03-03T00:55:11.965Z,0
2019-03-03T00:56:12.535Z,0
2019-03-03T00:57:13.100Z,0
2019-03-03T00:58:13.668Z,0
2019-03-03T00:59:14.234Z,0
2019-03-03T01:00:14.804Z,0
2019-03-03T01:01:15.371Z,0
2019-03-03T01:02:15.939Z,0
2019-03-03T01:03:16.506Z,0
2019-03-03T01:04:17.072Z,0
2019-03-03T01:05:17.639Z,0
2019-03-03T01:06:18.207Z,0
2019-03-03T01:07:18.779Z,0
2019-03-03T01:08:19.354Z,0
2019-03-03T01:09:19.923Z,0
2019-03-03T01:10:20.491Z,0
2019-03-03T01:11:21.060Z,0
2019-03-03T01:12:21.627Z,0
2019-03-03T01:13:22.198Z,0
2019-03-03T01:14:22.775Z,0
2019-03-03T01:15:23.342Z,0
2019-03-03T01:16:23.911Z,0
2019-03-03T01:17:24.481Z,0
2019-03-03T01:18:25.050Z,0
2019-03-03T01:19:25.619Z,0
2019-03-03T01:20:26.187Z,0
2019-03-03T01:21:26.754Z,0
2019-03-03T01:22:27.333Z,0
2019-03-03T01:23:27.899Z,0
2019-03-03T01:24:28.467Z,0
2019-03-03T01:25:29.047Z,0
2019-03-03T01:26:29.613Z,0
2019-03-03T01:27:30.193Z,0
2019-03-03T01:28:30.759Z,0
2019-03-03T01:29:31.330Z,0
2019-03-03T01:30:31.894Z,0
2019-03-03T01:31:32.463Z,0
2019-03-03T01:32:33.030Z,0
2019-03-03T01:33:33.596Z,0
2019-03-03T01:34:34.163Z,0
2019-03-03T01:35:34.734Z,0
2019-03-03T01:36:35.297Z,0
2019-03-03T01:37:35.864Z,0
2019-03-03T01:38:36.443Z,0
2019-03-03T01:39:37.010Z,0
2019-03-03T01:40:37.580Z,0
2019-03-03T01:41:38.153Z,0
2019-03-03T01:42:38.730Z,0
2019-03-03T01:43:39.298Z,0
2019-03-03T01:44:39.862Z,0
2019-03-03T01:45:40.430Z,0
2019-03-03T01:46:40.998Z,0
2019-03-03T01:47:41.564Z,0
2019-03-03T01:48:42.134Z,0
2019-03-03T01:49:42.699Z,0
2019-03-03T01:50:43.266Z,0
2019-03-03T01:51:43.832Z,0
2019-03-03T01:52:44.400Z,0
2019-03-03T01:53:44.968Z,0
2019-03-03T01:54:45.534Z,0
2019-03-03T01:55:46.101Z,0
2019-03-03T01:56:46.669Z,0
2019-03-03T01:57:47.238Z,0
2019-03-03T01:58:47.815Z,0
2019-03-03T01:59:48.386Z,0
2019-03-03T02:00:48.954Z,0
2019-03-03T02:01:49.523Z,0
2019-03-03T02:02:50.108Z,0
2019-03-03T02:03:50.674Z,0
2019-03-03T02:04:51.244Z,0
2019-03-03T02:05:51.833Z,0
2019-03-03T02:06:52.405Z,0
2019-03-03T02:07:52.975Z,0
2019-03-03T02:08:53.545Z,0
2019-03-03T02:09:54.116Z,0
2019-03-03T02:10:54.694Z,0
2019-03-03T02:11:55.274Z,0
2019-03-03T02:12:55.841Z,0
2019-03-03T02:13:56.409Z,0
2019-03-03T02:14:56.977Z,0
2019-03-03T02:15:57.887Z,0
2019-03-03T02:16:58.457Z,0
2019-03-03T02:17:59.027Z,0
2019-03-03T02:18:59.598Z,0
2019-03-03T02:20:00.344Z,0
2019-03-03T02:21:00.844Z,0
2019-03-03T02:22:01.413Z,0
2019-03-03T02:23:01.983Z,0
2019-03-03T02:24:02.563Z,0
2019-03-03T02:25:03.130Z,0
2019-03-03T02:26:03.710Z,0
2019-03-03T02:27:04.276Z,0
2019-03-03T02:28:04.858Z,0
2019-03-03T02:29:05.431Z,0
2019-03-03T02:30:05.995Z,0
2019-03-03T02:31:06.576Z,0
2019-03-03T02:32:07.157Z,0
2019-03-03T02:33:07.739Z,0
2019-03-03T02:34:08.292Z,0
2019-03-03T02:35:09.031Z,0
2019-03-03T02:36:09.593Z,0
2019-03-03T02:37:10.164Z,0
2019-03-03T02:38:10.741Z,0
2019-03-03T02:39:11.311Z,0
2019-03-03T02:40:11.879Z,0
2019-03-03T02:41:12.450Z,0
2019-03-03T02:42:13.017Z,0
2019-03-03T02:43:13.591Z,0
2019-03-03T02:44:14.154Z,0
2019-03-03T02:45:14.723Z,0
2019-03-03T02:46:15.290Z,0
2019-03-03T02:47:15.858Z,0
2019-03-03T02:48:16.427Z,0
2019-03-03T02:49:16.995Z,0
2019-03-03T02:50:17.564Z,0
2019-03-03T02:51:18.142Z,0
2019-03-03T02:52:18.712Z,0
2019-03-03T02:53:19.281Z,0
2019-03-03T02:54:19.860Z,0
2019-03-03T02:55:20.417Z,0
2019-03-03T02:56:20.987Z,0
2019-03-03T02:57:21.555Z,0
2019-03-03T02:58:22.122Z,0
2019-03-03T02:59:22.689Z,0
2019-03-03T03:00:23.261Z,0
2019-03-03T03:01:23.825Z,0
2019-03-03T03:02:24.394Z,0
2019-03-03T03:03:24.962Z,0
2019-03-03T03:04:25.542Z,0
2019-03-03T03:05:26.111Z,0
2019-03-03T03:06:26.679Z,0
2019-03-03T03:07:27.247Z,0
2019-03-03T03:08:27.815Z,0
2019-03-03T03:09:28.394Z,0
2019-03-03T03:10:28.951Z,0
2019-03-03T03:11:29.520Z,0
2019-03-03T03:12:30.090Z,0
2019-03-03T03:13:30.656Z,0
2019-03-03T03:14:31.223Z,0
2019-03-03T03:15:32.042Z,0
2019-03-03T03:16:32.611Z,0
2019-03-03T03:17:33.181Z,0
2019-03-03T03:18:33.747Z,0
2019-03-03T03:19:34.316Z,0
2019-03-03T03:20:34.882Z,0
2019-03-03T03:21:35.452Z,0
2019-03-03T03:22:36.021Z,0
2019-03-03T03:23:36.588Z,0
2019-03-03T03:24:37.167Z,0
2019-03-03T03:25:37.735Z,0
2019-03-03T03:26:38.372Z,0
2019-03-03T03:27:38.883Z,0
2019-03-03T03:28:39.451Z,0
2019-03-03T03:29:40.018Z,0
2019-03-03T03:30:40.594Z,0
2019-03-03T03:31:41.157Z,0
2019-03-03T03:32:41.724Z,0
2019-03-03T03:33:42.300Z,0
2019-03-03T03:34:42.869Z,0
2019-03-03T03:35:43.439Z,0
2019-03-03T03:36:44.005Z,0
2019-03-03T03:37:44.573Z,0
2019-03-03T03:38:45.144Z,0
2019-03-03T03:39:45.720Z,0
2019-03-03T03:40:46.288Z,0
2019-03-03T03:41:46.856Z,0
2019-03-03T03:42:47.425Z,0
2019-03-03T03:43:48.001Z,0
2019-03-03T03:44:48.578Z,0
2019-03-03T03:45:49.138Z,0
2019-03-03T03:46:49.707Z,0
2019-03-03T03:47:50.277Z,0
2019-03-03T03:48:50.853Z,0
2019-03-03T03:49:51.433Z,0
2019-03-03T03:50:51.999Z,0
2019-03-03T03:51:55.086Z,0
2019-03-03T03:52:53.226Z,0
2019-03-03T03:53:53.726Z,0
2019-03-03T03:54:54.295Z,0
2019-03-03T03:55:54.868Z,0
2019-03-03T03:56:55.430Z,0
2019-03-03T03:57:55.994Z,0
2019-03-03T03:58:56.561Z,0
2019-03-03T03:59:57.129Z,0
2019-03-03T04:00:57.696Z,0
2019-03-03T04:01:58.263Z,0
2019-03-03T04:02:58.831Z,0
2019-03-03T04:03:59.398Z,0
2019-03-03T04:04:59.966Z,0
2019-03-03T04:06:00.539Z,0
2019-03-03T04:07:01.106Z,0
2019-03-03T04:08:01.683Z,0
2019-03-03T04:09:02.261Z,0
2019-03-03T04:10:02.834Z,0
2019-03-03T04:11:03.409Z,0
2019-03-03T04:12:03.977Z,0
2019-03-03T04:13:04.545Z,0
2019-03-03T04:14:05.120Z,0
2019-03-03T04:15:05.683Z,0
2019-03-03T04:16:06.356Z,0
2019-03-03T04:17:06.917Z,0
2019-03-03T04:18:07.489Z,0
2019-03-03T04:19:08.058Z,0
2019-03-03T04:20:08.634Z,0
2019-03-03T04:21:09.202Z,0
2019-03-03T04:22:09.769Z,0
2019-03-03T04:23:10.336Z,0
2019-03-03T04:24:10.904Z,0
2019-03-03T04:25:11.471Z,0
2019-03-03T04:26:12.041Z,0
2019-03-03T04:27:12.609Z,0
2019-03-03T04:28:13.185Z,0
2019-03-03T04:29:13.752Z,0
2019-03-03T04:30:14.320Z,0
2019-03-03T04:31:14.889Z,0
2019-03-03T04:32:15.468Z,0
2019-03-03T04:33:16.034Z,0
2019-03-03T04:34:17.508Z,0
2019-03-03T04:35:18.103Z,0
2019-03-03T04:36:18.670Z,0
2019-03-03T04:37:19.238Z,0
2019-03-03T04:38:19.817Z,0
2019-03-03T04:39:20.388Z,0
2019-03-03T04:40:20.955Z,0
2019-03-03T04:41:21.526Z,0
2019-03-03T04:42:22.092Z,0
2019-03-03T04:43:22.659Z,0
2019-03-03T04:44:23.228Z,0
2019-03-03T04:45:23.796Z,0
2019-03-03T04:46:24.376Z,0
2019-03-03T04:47:24.945Z,0
2019-03-03T04:48:25.523Z,0
2019-03-03T04:49:26.090Z,0
2019-03-03T04:50:26.658Z,0
2019-03-03T04:51:27.374Z,0
2019-03-03T04:52:27.942Z,0
2019-03-03T04:53:28.510Z,0
2019-03-03T04:54:29.078Z,0
2019-03-03T04:55:29.645Z,0
2019-03-03T04:56:30.213Z,0
2019-03-03T04:57:30.780Z,0
2019-03-03T04:58:31.346Z,0
2019-03-03T04:59:31.913Z,0
2019-03-03T05:00:32.480Z,0
2019-03-03T05:01:33.048Z,0
2019-03-03T05:02:33.616Z,0
2019-03-03T05:03:34.184Z,0
2019-03-03T05:04:34.750Z,0
2019-03-03T05:05:35.317Z,0
2019-03-03T05:06:35.887Z,0
2019-03-03T05:07:36.454Z,0
2019-03-03T05:08:37.022Z,0
2019-03-03T05:09:37.589Z,0
2019-03-03T05:10:38.157Z,0
2019-03-03T05:11:38.727Z,0
2019-03-03T05:12:39.291Z,0
2019-03-03T05:13:39.857Z,0
2019-03-03T05:14:40.424Z,0
2019-03-03T05:15:40.992Z,0
2019-03-03T05:16:41.659Z,0
2019-03-03T05:17:42.237Z,0
2019-03-03T05:18:42.805Z,0
2019-03-03T05:19:43.371Z,0
2019-03-03T05:20:43.939Z,0
2019-03-03T05:21:44.505Z,0
2019-03-03T05:22:45.085Z,0
2019-03-03T05:23:45.651Z,0
2019-03-03T05:24:46.220Z,0
2019-03-03T05:25:46.789Z,0
2019-03-03T05:26:47.356Z,0
2019-03-03T05:27:47.935Z,0
2019-03-03T05:28:48.502Z,0
2019-03-03T05:29:49.071Z,0
2019-03-03T05:30:49.640Z,0
2019-03-03T05:31:50.358Z,0
2019-03-03T05:32:50.926Z,0
2019-03-03T05:33:51.494Z,0
2019-03-03T05:34:52.073Z,0
2019-03-03T05:35:52.631Z,0
2019-03-03T05:36:53.207Z,0
2019-03-03T05:37:53.767Z,0
2019-03-03T05:38:54.335Z,0
2019-03-03T05:39:54.905Z,0
2019-03-03T05:40:55.471Z,0
2019-03-03T05:41:56.038Z,0
2019-03-03T05:42:56.607Z,0
2019-03-03T05:43:57.179Z,0
2019-03-03T05:44:57.752Z,0
2019-03-03T05:45:58.320Z,0
2019-03-03T05:46:58.900Z,0
2019-03-03T05:47:59.466Z,0
2019-03-03T05:49:00.034Z,0
2019-03-03T05:50:00.600Z,0
2019-03-03T05:51:01.178Z,0
2019-03-03T05:52:01.758Z,0
2019-03-03T05:53:02.325Z,0
2019-03-03T05:54:02.894Z,0
2019-03-03T05:55:03.458Z,0
2019-03-03T05:56:04.024Z,0
2019-03-03T05:57:04.592Z,0
2019-03-03T05:58:05.174Z,0
2019-03-03T05:59:05.741Z,0
2019-03-03T06:00:06.312Z,0
2019-03-03T06:01:06.878Z,0
2019-03-03T06:02:07.445Z,0
2019-03-03T06:03:08.011Z,0
2019-03-03T06:04:08.579Z,0
2019-03-03T06:05:09.147Z,0
2019-03-03T06:06:09.716Z,0
2019-03-03T06:07:10.283Z,0
2019-03-03T06:08:10.851Z,0
2019-03-03T06:09:11.418Z,0
2019-03-03T06:10:11.985Z,0
2019-03-03T06:11:12.593Z,0
2019-03-03T06:12:13.135Z,0
2019-03-03T06:13:13.704Z,0
2019-03-03T06:14:14.271Z,4
2019-03-03T06:15:14.838Z,4
2019-03-03T06:16:15.406Z,0
2019-03-03T06:17:15.974Z,0
2019-03-03T06:18:16.542Z,4
2019-03-03T06:19:17.110Z,0
2019-03-03T06:20:17.677Z,4
2019-03-03T06:21:18.245Z,0
2019-03-03T06:22:18.812Z,0
2019-03-03T06:23:19.378Z,0
2019-03-03T06:24:19.961Z,0
2019-03-03T06:25:20.526Z,4
2019-03-03T06:26:21.103Z,4
2019-03-03T06:27:21.682Z,4
2019-03-03T06:28:22.251Z,4
2019-03-03T06:29:22.820Z,8
2019-03-03T06:30:23.388Z,4
2019-03-03T06:31:23.956Z,4
2019-03-03T06:32:24.525Z,8
2019-03-03T06:33:25.102Z,8
2019-03-03T06:34:25.671Z,4
2019-03-03T06:35:26.238Z,8
2019-03-03T06:36:26.808Z,8
2019-03-03T06:37:27.379Z,4
2019-03-03T06:38:27.943Z,4
2019-03-03T06:39:28.511Z,4
2019-03-03T06:40:29.079Z,4
2019-03-03T06:41:29.689Z,8
2019-03-03T06:42:30.215Z,8
2019-03-03T06:43:30.781Z,8
2019-03-03T06:44:31.361Z,12
2019-03-03T06:45:31.929Z,12
2019-03-03T06:46:32.498Z,16
2019-03-03T06:47:33.068Z,16
2019-03-03T06:48:33.636Z,16
2019-03-03T06:49:34.205Z,16
2019-03-03T06:50:34.777Z,20
2019-03-03T06:51:35.342Z,20
2019-03-03T06:52:35.911Z,20
2019-03-03T06:53:36.482Z,24
2019-03-03T06:54:37.048Z,24
2019-03-03T06:55:37.614Z,20
2019-03-03T06:56:38.182Z,16
2019-03-03T06:57:38.750Z,16
2019-03-03T06:58:39.318Z,16
2019-03-03T06:59:39.887Z,16
2019-03-03T07:00:40.454Z,20
2019-03-03T07:01:41.022Z,20
2019-03-03T07:02:41.591Z,20
2019-03-03T07:03:42.160Z,24
2019-03-03T07:04:42.729Z,24
2019-03-03T07:05:43.299Z,24
2019-03-03T07:06:43.883Z,24
2019-03-03T07:07:44.445Z,24
2019-03-03T07:08:45.012Z,24
2019-03-03T07:09:45.588Z,24
2019-03-03T07:10:46.163Z,32
2019-03-03T07:11:46.733Z,32
2019-03-03T07:12:47.299Z,28
2019-03-03T07:13:47.866Z,24
2019-03-03T07:14:48.433Z,24
2019-03-03T07:15:49.013Z,24
2019-03-03T07:16:49.583Z,32
2019-03-03T07:17:50.150Z,36
2019-03-03T07:18:50.721Z,36
2019-03-03T07:19:51.288Z,32
2019-03-03T07:20:51.856Z,36
2019-03-03T07:21:52.437Z,32
2019-03-03T07:22:53.004Z,36
2019-03-03T07:23:53.574Z,36
2019-03-03T07:24:54.145Z,32
2019-03-03T07:25:54.722Z,36
2019-03-03T07:26:55.294Z,44
2019-03-03T07:27:55.860Z,44
2019-03-03T07:28:56.429Z,44
2019-03-03T07:29:56.997Z,44
2019-03-03T07:30:57.566Z,44
2019-03-03T07:31:58.246Z,48
2019-03-03T07:32:58.732Z,48
2019-03-03T07:33:59.303Z,56
2019-03-03T07:34:59.881Z,60
2019-03-03T07:36:00.449Z,64
2019-03-03T07:37:01.018Z,72
2019-03-03T07:38:01.585Z,68
2019-03-03T07:39:02.155Z,56
2019-03-03T07:40:02.722Z,80
2019-03-03T07:41:03.289Z,68
2019-03-03T07:42:03.858Z,64
2019-03-03T07:43:04.446Z,76
2019-03-03T07:44:05.017Z,76
2019-03-03T07:45:05.588Z,80
2019-03-03T07:46:06.155Z,80
2019-03-03T07:47:06.735Z,76
2019-03-03T07:48:07.306Z,76
2019-03-03T07:49:07.872Z,64
2019-03-03T07:50:08.443Z,68
2019-03-03T07:51:09.013Z,60
2019-03-03T07:52:09.581Z,52
2019-03-03T07:53:10.153Z,64
2019-03-03T07:54:10.720Z,68
2019-03-03T07:55:11.285Z,72
2019-03-03T07:56:11.855Z,88
2019-03-03T07:57:12.435Z,96
2019-03-03T07:58:13.005Z,88
2019-03-03T07:59:13.574Z,84
2019-03-03T08:00:14.141Z,92
2019-03-03T08:01:14.710Z,88
2019-03-03T08:02:15.290Z,84
2019-03-03T08:03:15.858Z,96
2019-03-03T08:04:16.428Z,92
2019-03-03T08:05:16.995Z,84
2019-03-03T08:06:17.566Z,88
2019-03-03T08:07:18.135Z,88
2019-03-03T08:08:18.705Z,104
2019-03-03T08:09:19.277Z,104
2019-03-03T08:10:19.844Z,112
2019-03-03T08:11:20.412Z,108
2019-03-03T08:12:20.984Z,104
2019-03-03T08:13:21.553Z,112
2019-03-03T08:14:22.124Z,104
2019-03-03T08:15:22.695Z,104
2019-03-03T08:16:23.265Z,104
2019-03-03T08:17:23.834Z,104
2019-03-03T08:18:24.404Z,100
2019-03-03T08:19:24.975Z,84
2019-03-03T08:20:25.547Z,100
2019-03-03T08:21:26.114Z,100
2019-03-03T08:22:26.694Z,100
2019-03-03T08:23:27.261Z,92
2019-03-03T08:24:27.829Z,92
2019-03-03T08:25:28.398Z,108
2019-03-03T08:26:28.969Z,112
2019-03-03T08:27:29.538Z,96
2019-03-03T08:28:30.113Z,100
2019-03-03T08:29:30.677Z,88
2019-03-03T08:30:31.245Z,80
2019-03-03T08:31:31.814Z,84
2019-03-03T08:32:32.381Z,84
2019-03-03T08:33:32.953Z,88
2019-03-03T08:34:33.518Z,88
2019-03-03T08:35:34.086Z,76
2019-03-03T08:36:34.665Z,76
2019-03-03T08:37:35.234Z,68
2019-03-03T08:38:35.805Z,76
2019-03-03T08:39:36.374Z,80
2019-03-03T08:40:36.944Z,100
2019-03-03T08:41:37.514Z,128
2019-03-03T08:42:38.095Z,100
2019-03-03T08:43:38.665Z,112
2019-03-03T08:44:39.234Z,120
2019-03-03T08:45:39.815Z,112
2019-03-03T08:46:40.386Z,112
2019-03-03T08:47:40.955Z,116
2019-03-03T08:48:41.529Z,116
2019-03-03T08:49:42.094Z,132
2019-03-03T08:50:42.664Z,136
2019-03-03T08:51:43.233Z,128
2019-03-03T08:52:43.802Z,112
2019-03-03T08:53:44.374Z,124
2019-03-03T08:54:44.942Z,120
2019-03-03T08:55:45.518Z,112
2019-03-03T08:56:46.084Z,120
2019-03-03T08:57:46.656Z,132
2019-03-03T08:58:47.222Z,116
2019-03-03T08:59:47.792Z,132
2019-03-03T09:00:48.360Z,100
2019-03-03T09:01:48.934Z,104
2019-03-03T09:02:49.502Z,108
2019-03-03T09:03:50.321Z,108
2019-03-03T09:04:50.893Z,112
2019-03-03T09:05:51.462Z,128
2019-03-03T09:06:52.032Z,96
2019-03-03T09:07:52.599Z,88
2019-03-03T09:08:53.169Z,80
2019-03-03T09:09:53.738Z,88
2019-03-03T09:10:54.305Z,84
2019-03-03T09:11:54.873Z,92
2019-03-03T09:12:55.442Z,88
2019-03-03T09:13:56.010Z,88
2019-03-03T09:14:56.580Z,96
2019-03-03T09:15:57.148Z,124
2019-03-03T09:16:57.717Z,124
2019-03-03T09:17:58.288Z,128
2019-03-03T09:18:58.859Z,112
2019-03-03T09:19:59.430Z,116
2019-03-03T09:21:00.007Z,92
2019-03-03T09:22:00.567Z,92
2019-03-03T09:23:01.135Z,104
2019-03-03T09:24:01.705Z,136
2019-03-03T09:25:02.276Z,180
2019-03-03T09:26:02.847Z,160
2019-03-03T09:27:03.423Z,184
2019-03-03T09:28:03.993Z,160
2019-03-03T09:29:04.559Z,164
2019-03-03T09:30:05.128Z,180
2019-03-03T09:31:05.697Z,168
2019-03-03T09:32:06.268Z,152
2019-03-03T09:33:06.837Z,172
2019-03-03T09:34:07.407Z,188
2019-03-03T09:35:07.977Z,160
2019-03-03T09:36:08.557Z,140
2019-03-03T09:37:09.125Z,120
2019-03-03T09:38:09.695Z,148
2019-03-03T09:39:10.265Z,148
2019-03-03T09:40:10.836Z,144
2019-03-03T09:41:11.407Z,136
2019-03-03T09:42:11.977Z,136
2019-03-03T09:43:12.548Z,152
2019-03-03T09:44:13.118Z,200
2019-03-03T09:45:13.689Z,172
2019-03-03T09:46:14.257Z,144
2019-03-03T09:47:14.837Z,152
2019-03-03T09:48:15.407Z,152
2019-03-03T09:49:17.262Z,184
2019-03-03T09:50:17.543Z,168
2019-03-03T09:51:18.120Z,148
2019-03-03T09:52:18.692Z,168
2019-03-03T09:53:19.263Z,160
2019-03-03T09:54:19.835Z,160
2019-03-03T09:55:20.406Z,184
2019-03-03T09:56:20.986Z,168
2019-03-03T09:57:21.569Z,152
2019-03-03T09:58:22.139Z,172
2019-03-03T09:59:22.707Z,176
2019-03-03T10:00:23.288Z,176
2019-03-03T10:01:23.858Z,156
2019-03-03T10:02:24.429Z,144
2019-03-03T10:03:24.999Z,160
2019-03-03T10:04:25.583Z,184
2019-03-03T10:05:26.140Z,156
2019-03-03T10:06:26.710Z,160
2019-03-03T10:07:27.282Z,168
2019-03-03T10:08:27.852Z,168
2019-03-03T10:09:28.421Z,176
2019-03-03T10:10:28.991Z,184
2019-03-03T10:11:29.561Z,164
2019-03-03T10:12:30.134Z,156
2019-03-03T10:13:30.704Z,152
2019-03-03T10:14:31.274Z,156
2019-03-03T10:15:31.845Z,136
2019-03-03T10:16:32.413Z,172
2019-03-03T10:17:32.982Z,164
2019-03-03T10:18:33.552Z,160
2019-03-03T10:19:34.123Z,160
2019-03-03T10:20:34.698Z,156
2019-03-03T10:21:35.274Z,156
2019-03-03T10:22:35.845Z,148
2019-03-03T10:23:36.416Z,160
2019-03-03T10:24:37.044Z,152
2019-03-03T10:25:37.555Z,168
2019-03-03T10:26:38.129Z,140
2019-03-03T10:27:38.697Z,140
2019-03-03T10:28:39.267Z,148
2019-03-03T10:29:39.837Z,148
2019-03-03T10:30:40.419Z,152
2019-03-03T10:31:40.990Z,148
2019-03-03T10:32:41.563Z,164
2019-03-03T10:33:42.129Z,172
2019-03-03T10:34:42.698Z,152
2019-03-03T10:35:43.281Z,156
2019-03-03T10:36:43.862Z,176
2019-03-03T10:37:44.434Z,188
2019-03-03T10:38:45.003Z,176
2019-03-03T10:39:45.575Z,148
2019-03-03T10:40:46.147Z,148
2019-03-03T10:41:46.715Z,172
2019-03-03T10:42:47.288Z,148
2019-03-03T10:43:47.857Z,136
2019-03-03T10:44:48.439Z,140
2019-03-03T10:45:49.011Z,152
2019-03-03T10:46:49.577Z,156
2019-03-03T10:47:50.147Z,168
2019-03-03T10:48:50.719Z,172
2019-03-03T10:49:51.291Z,168
2019-03-03T10:50:51.862Z,160
2019-03-03T10:51:52.444Z,180
2019-03-03T10:52:53.026Z,184
2019-03-03T10:53:53.585Z,212
2019-03-03T10:54:54.156Z,192
2019-03-03T10:55:54.725Z,184
2019-03-03T10:56:55.295Z,152
2019-03-03T10:57:55.865Z,152
2019-03-03T10:58:56.436Z,160
2019-03-03T10:59:57.008Z,152
2019-03-03T11:00:57.577Z,168
2019-03-03T11:01:58.149Z,172
2019-03-03T11:02:58.719Z,176
2019-03-03T11:03:59.301Z,196
2019-03-03T11:04:59.873Z,184
2019-03-03T11:06:00.462Z,192
2019-03-03T11:07:01.028Z,196
2019-03-03T11:08:01.600Z,188
2019-03-03T11:09:02.184Z,192
2019-03-03T11:10:02.751Z,196
2019-03-03T11:11:03.325Z,180
2019-03-03T11:12:03.891Z,188
2019-03-03T11:13:04.462Z,188
2019-03-03T11:14:05.065Z,192
2019-03-03T11:15:05.609Z,196
2019-03-03T11:16:06.182Z,196
2019-03-03T11:17:06.751Z,180
2019-03-03T11:18:07.322Z,180
2019-03-03T11:19:07.894Z,172
2019-03-03T11:20:08.463Z,152
2019-03-03T11:21:09.035Z,140
2019-03-03T11:22:09.613Z,136
2019-03-03T11:23:10.195Z,132
2019-03-03T11:24:10.765Z,156
2019-03-03T11:25:11.336Z,168
2019-03-03T11:26:11.907Z,176
2019-03-03T11:27:12.477Z,176
2019-03-03T11:28:13.047Z,168
2019-03-03T11:29:13.617Z,172
2019-03-03T11:30:14.199Z,168
2019-03-03T11:31:14.771Z,172
2019-03-03T11:32:15.354Z,144
2019-03-03T11:33:15.921Z,148
2019-03-03T11:34:16.502Z,140
2019-03-03T11:35:17.075Z,164
2019-03-03T11:36:17.661Z,176
2019-03-03T11:37:18.239Z,164
2019-03-03T11:38:18.960Z,164
2019-03-03T11:39:19.526Z,152
2019-03-03T11:40:20.096Z,136
2019-03-03T11:41:20.665Z,144
2019-03-03T11:42:22.588Z,144
2019-03-03T17:58:27.565Z,0
2019-03-03T17:59:28.135Z,0
2019-03-03T18:00:28.705Z,0
2019-03-03T18:01:29.270Z,0
2019-03-03T18:02:29.841Z,0
2019-03-03T18:03:30.408Z,0
2019-03-03T18:04:30.977Z,0
2019-03-03T18:05:31.546Z,0
2019-03-03T18:06:38.818Z,0
2019-03-03T18:07:33.689Z,0
2019-03-03T18:08:34.244Z,0
2019-03-03T18:09:34.823Z,0
2019-03-03T18:10:35.393Z,0
2019-03-03T18:11:35.973Z,0
2019-03-03T18:12:36.544Z,0
2019-03-03T18:13:37.112Z,0
2019-03-03T18:14:37.682Z,0
2019-03-03T18:15:38.250Z,0
2019-03-03T18:16:38.821Z,0
2019-03-03T18:17:39.400Z,0
2019-03-03T18:18:39.969Z,0
2019-03-03T18:19:40.549Z,0
2019-03-03T18:20:41.117Z,0
2019-03-03T18:21:41.687Z,0
2019-03-03T18:22:42.252Z,0
2019-03-03T18:23:42.823Z,0
2019-03-03T18:24:43.391Z,0
2019-03-03T18:25:43.959Z,0
2019-03-03T18:26:44.530Z,0
2019-03-03T18:27:45.097Z,0
2019-03-03T18:28:45.665Z,0
2019-03-03T18:29:46.233Z,0
2019-03-03T18:30:46.812Z,0
2019-03-03T18:31:47.388Z,0
2019-03-03T18:32:47.953Z,0
2019-03-03T18:33:48.523Z,0
2019-03-03T18:34:49.093Z,0
2019-03-03T18:35:49.663Z,0
2019-03-03T18:36:50.233Z,0
2019-03-03T18:37:50.802Z,0
2019-03-03T18:38:51.371Z,0
2019-03-03T18:39:51.939Z,0
2019-03-03T18:40:52.509Z,0
2019-03-03T18:41:53.079Z,0
2019-03-03T18:42:53.646Z,0
2019-03-03T18:43:54.215Z,0
2019-03-03T18:44:54.784Z,0
2019-03-03T18:45:55.365Z,0
2019-03-03T18:46:55.946Z,0
2019-03-03T18:47:56.515Z,0
2019-03-03T18:48:57.086Z,0
2019-03-03T18:49:57.651Z,0
2019-03-03T18:50:58.229Z,0
2019-03-03T18:51:58.802Z,0
2019-03-03T18:53:00.183Z,0
2019-03-03T18:54:00.757Z,0
2019-03-03T18:55:01.325Z,0
2019-03-03T18:56:01.894Z,0
2019-03-03T18:57:02.463Z,0
2019-03-03T18:58:03.030Z,0
2019-03-03T18:59:03.604Z,0
2019-03-03T19:00:04.168Z,0
2019-03-03T19:01:04.741Z,0
2019-03-03T19:02:05.304Z,0
2019-03-03T19:03:05.875Z,0
2019-03-03T19:04:06.445Z,0
2019-03-03T19:05:07.010Z,0
2019-03-03T19:06:07.579Z,0
2019-03-03T19:07:08.148Z,0
2019-03-03T19:08:08.715Z,0
2019-03-03T19:09:09.284Z,0
2019-03-03T19:10:09.855Z,0
2019-03-03T19:11:10.420Z,0
2019-03-03T19:12:10.990Z,0
2019-03-03T19:13:11.558Z,0
2019-03-03T19:14:12.128Z,0
2019-03-03T19:15:12.696Z,0
2019-03-03T19:16:13.266Z,0
2019-03-03T19:17:13.835Z,0
2019-03-03T19:18:14.403Z,0
2019-03-03T19:19:14.976Z,0
2019-03-03T19:20:15.554Z,0
2019-03-03T19:21:16.121Z,0
2019-03-03T19:22:16.690Z,0
2019-03-03T19:23:17.270Z,0
2019-03-03T19:24:17.838Z,0
2019-03-03T19:25:18.418Z,0
2019-03-03T19:26:19.147Z,0
2019-03-03T19:27:19.638Z,0
2019-03-03T19:28:20.207Z,0
2019-03-03T19:29:20.776Z,0
2019-03-03T19:30:21.345Z,0
2019-03-03T19:31:21.917Z,0
2019-03-03T19:32:22.495Z,0
2019-03-03T19:33:23.067Z,0
2019-03-03T19:34:23.637Z,0
2019-03-03T19:35:24.207Z,0
2019-03-03T19:36:24.777Z,0
2019-03-03T19:37:25.346Z,0
2019-03-03T19:38:25.916Z,0
2019-03-03T19:39:26.485Z,0
2019-03-03T19:40:27.056Z,0
2019-03-03T19:41:27.624Z,0
2019-03-03T19:42:28.198Z,0
2019-03-03T19:43:28.766Z,0
2019-03-03T19:44:29.334Z,0
2019-03-03T19:45:29.905Z,0
2019-03-03T19:46:30.485Z,0
2019-03-03T19:47:31.062Z,0
2019-03-03T19:48:31.627Z,0
2019-03-03T19:49:32.211Z,0
2019-03-03T19:50:32.765Z,0
2019-03-03T19:51:33.335Z,0
2019-03-03T19:52:33.904Z,0
2019-03-03T19:53:34.475Z,0
2019-03-03T19:54:35.056Z,0
2019-03-03T19:55:35.776Z,0
2019-03-03T19:56:36.355Z,0
2019-03-03T19:57:36.927Z,0
2019-03-03T19:58:37.496Z,0
2019-03-03T19:59:38.061Z,0
2019-03-03T20:00:39.188Z,0
2019-03-03T20:01:39.815Z,0
2019-03-03T20:02:40.384Z,0
2019-03-03T20:03:40.967Z,0
2019-03-03T20:04:41.535Z,0
2019-03-03T20:05:42.105Z,0
2019-03-03T20:06:42.689Z,0
2019-03-03T20:07:43.266Z,0
2019-03-03T20:08:43.838Z,0
2019-03-03T20:09:44.410Z,0
2019-03-03T20:10:44.976Z,0
2019-03-03T20:11:47.816Z,0
2019-03-03T20:12:47.109Z,0
2019-03-03T20:13:47.679Z,0
2019-03-03T20:14:48.249Z,0
2019-03-03T20:15:48.819Z,0
2019-03-03T20:16:49.387Z,0
2019-03-03T20:17:49.957Z,0
2019-03-03T20:18:50.527Z,0
2019-03-03T20:19:51.099Z,0
2019-03-03T20:20:51.715Z,0
2019-03-03T20:21:52.284Z,0
2019-03-03T20:22:52.853Z,0
2019-03-03T20:23:53.422Z,0
2019-03-03T20:24:53.996Z,0
2019-03-03T20:25:54.575Z,0
2019-03-03T20:26:55.143Z,0
2019-03-03T20:27:55.712Z,0
2019-03-03T20:28:56.285Z,0
2019-03-03T20:29:56.864Z,0
2019-03-03T20:30:57.435Z,0
2019-03-03T20:31:58.005Z,0
2019-03-03T20:32:58.575Z,0
2019-03-03T20:33:59.145Z,0
2019-03-03T20:34:59.716Z,0
2019-03-03T20:36:00.296Z,0
2019-03-03T20:37:00.868Z,0
2019-03-03T20:38:01.437Z,0
2019-03-03T20:39:02.008Z,0
2019-03-03T20:40:02.577Z,0
2019-03-03T20:41:03.146Z,0
2019-03-03T20:42:03.713Z,0
2019-03-03T20:43:04.283Z,0
2019-03-03T20:44:04.851Z,0
2019-03-03T20:45:05.422Z,0
2019-03-03T20:46:05.991Z,0
2019-03-03T20:47:06.570Z,0
2019-03-03T20:48:07.139Z,0
2019-03-03T20:49:07.721Z,0
2019-03-03T20:50:08.291Z,0
2019-03-03T20:51:08.861Z,0
2019-03-03T20:52:09.440Z,0
2019-03-03T20:53:10.009Z,0